createdAt,value
2018-11-23T00:00:23.336Z,3.00
2018-11-23T00:02:52.527Z,3.00
2018-11-23T00:05:21.432Z,2.90
2018-11-23T00:07:50.550Z,2.90
2018-11-23T00:10:21.487Z,2.90
2018-11-23T00:12:50.153Z,2.90
2018-11-23T00:15:19.989Z,3.00
2018-11-23T00:17:48.676Z,3.00
2018-11-23T00:20:18.651Z,3.00
2018-11-23T00:22:47.255Z,2.90
2018-11-23T00:25:18.010Z,2.80
2018-11-23T00:27:46.702Z,3.00
2018-11-23T00:30:18.162Z,3.10
2018-11-23T00:32:47.249Z,3.10
2018-11-23T00:35:17.600Z,3.20
2018-11-23T00:37:46.752Z,3.20
2018-11-23T00:40:25.901Z,3.20
2018-11-23T00:42:54.872Z,3.10
2018-11-23T00:45:23.585Z,3.20
2018-11-23T00:47:52.934Z,3.20
2018-11-23T00:50:22.685Z,3.10
2018-11-23T00:52:51.980Z,3.10
2018-11-23T00:55:21.693Z,3.10
2018-11-23T00:57:50.445Z,3.10
2018-11-23T01:00:22.230Z,3.10
2018-11-23T01:02:51.332Z,3.10
2018-11-23T01:05:20.046Z,3.20
2018-11-23T01:07:49.129Z,3.30
2018-11-23T01:10:19.025Z,3.30
2018-11-23T01:12:48.678Z,3.30
2018-11-23T01:15:17.348Z,3.20
2018-11-23T01:17:46.098Z,3.20
2018-11-23T01:20:16.962Z,3.20
2018-11-23T01:22:46.056Z,3.10
2018-11-23T01:25:15.772Z,3.10
2018-11-23T01:27:45.994Z,3.00
2018-11-23T01:30:17.213Z,3.00
2018-11-23T01:32:46.152Z,3.00
2018-11-23T01:35:15.197Z,3.00
2018-11-23T01:37:44.817Z,3.00
2018-11-23T01:40:17.436Z,3.00
2018-11-23T01:42:46.592Z,3.10
2018-11-23T01:45:15.484Z,3.10
2018-11-23T01:47:45.088Z,3.10
2018-11-23T01:50:17.005Z,3.10
2018-11-23T01:52:46.984Z,3.00
2018-11-23T01:55:16.596Z,3.00
2018-11-23T01:57:45.569Z,3.10
2018-11-23T02:00:16.880Z,3.10
2018-11-23T02:02:46.446Z,3.10
2018-11-23T02:05:15.122Z,3.10
2018-11-23T02:07:43.845Z,3.00
2018-11-23T02:10:13.724Z,3.00
2018-11-23T02:12:42.421Z,2.90
2018-11-23T02:15:13.853Z,3.00
2018-11-23T02:17:42.558Z,3.00
2018-11-23T02:20:12.501Z,2.90
2018-11-23T02:22:41.202Z,3.00
2018-11-23T02:25:09.910Z,2.90
2018-11-23T02:27:38.608Z,2.90
2018-11-23T02:30:23.565Z,3.00
2018-11-23T02:32:52.264Z,3.00
2018-11-23T02:35:20.960Z,2.90
2018-11-23T02:37:49.651Z,2.80
2018-11-23T02:40:19.171Z,2.90
2018-11-23T02:42:48.037Z,2.90
2018-11-23T02:45:18.884Z,2.90
2018-11-23T02:47:48.068Z,3.00
2018-11-23T02:50:16.752Z,2.90
2018-11-23T02:52:45.996Z,2.90
2018-11-23T02:55:16.272Z,2.90
2018-11-23T02:57:45.125Z,2.90
2018-11-23T03:00:17.058Z,2.80
2018-11-23T03:02:45.758Z,2.80
2018-11-23T03:05:17.082Z,2.80
2018-11-23T03:07:45.822Z,2.80
2018-11-23T03:10:15.780Z,2.90
2018-11-23T03:12:45.984Z,2.80
2018-11-23T03:15:17.460Z,2.80
2018-11-23T03:17:46.630Z,2.70
2018-11-23T03:20:17.592Z,2.70
2018-11-23T03:22:46.268Z,2.50
2018-11-23T03:25:15.358Z,2.60
2018-11-23T03:27:44.945Z,2.60
2018-11-23T03:30:15.922Z,2.60
2018-11-23T03:32:46.129Z,2.60
2018-11-23T03:35:15.181Z,2.60
2018-11-23T03:37:44.941Z,2.70
2018-11-23T03:40:12.906Z,2.70
2018-11-23T03:42:41.876Z,2.60
2018-11-23T03:45:11.805Z,2.50
2018-11-23T03:47:41.023Z,2.50
2018-11-23T03:50:10.625Z,2.60
2018-11-23T03:52:39.301Z,2.70
2018-11-23T03:55:07.968Z,2.70
2018-11-23T03:57:36.653Z,2.80
2018-11-23T04:00:17.152Z,2.80
2018-11-23T04:02:40.337Z,2.80
2018-11-23T04:05:09.179Z,2.80
2018-11-23T04:07:37.866Z,2.70
2018-11-23T04:10:07.665Z,2.60
2018-11-23T04:12:36.372Z,2.60
2018-11-23T04:15:05.659Z,2.70
2018-11-23T04:17:34.328Z,2.70
2018-11-23T04:20:02.975Z,2.80
2018-11-23T04:22:31.645Z,2.90
2018-11-23T04:25:00.344Z,2.90
2018-11-23T04:27:29.005Z,2.90
2018-11-23T04:29:58.290Z,2.80
2018-11-23T04:32:27.062Z,2.80
2018-11-23T04:34:55.775Z,2.80
2018-11-23T04:37:24.516Z,2.90
2018-11-23T04:39:53.188Z,2.80
2018-11-23T04:42:21.882Z,2.90
2018-11-23T04:44:50.565Z,2.80
2018-11-23T04:47:19.237Z,2.70
2018-11-23T04:49:47.903Z,2.60
2018-11-23T04:52:16.590Z,2.60
2018-11-23T04:54:45.389Z,2.70
2018-11-23T04:57:14.068Z,2.70
2018-11-23T04:59:42.729Z,2.70
2018-11-23T05:02:11.371Z,2.70
2018-11-23T05:04:40.037Z,2.70
2018-11-23T05:07:08.715Z,2.70
2018-11-23T05:09:37.396Z,2.80
2018-11-23T05:12:06.123Z,2.70
2018-11-23T05:14:34.813Z,2.70
2018-11-23T05:17:03.465Z,2.70
2018-11-23T05:19:32.138Z,2.80
2018-11-23T05:22:00.777Z,2.80
2018-11-23T05:24:29.424Z,2.80
2018-11-23T05:26:58.076Z,2.90
2018-11-23T05:29:26.725Z,2.90
2018-11-23T05:31:55.378Z,2.90
2018-11-23T05:34:24.055Z,3.00
2018-11-23T05:36:52.726Z,3.10
2018-11-23T05:39:21.361Z,3.10
2018-11-23T05:41:49.992Z,3.10
2018-11-23T05:44:18.608Z,3.10
2018-11-23T05:46:47.413Z,3.20
2018-11-23T05:49:16.174Z,3.30
2018-11-23T05:51:44.838Z,3.30
2018-11-23T05:54:13.461Z,3.40
2018-11-23T05:56:42.143Z,3.30
2018-11-23T05:59:10.824Z,3.30
2018-11-23T06:01:39.486Z,3.30
2018-11-23T06:04:08.113Z,3.30
2018-11-23T06:06:42.220Z,3.20
2018-11-23T06:09:06.668Z,3.20
2018-11-23T06:11:35.386Z,3.20
2018-11-23T06:14:04.120Z,3.20
2018-11-23T06:16:33.029Z,3.20
2018-11-23T06:19:01.654Z,3.20
2018-11-23T06:21:30.304Z,3.20
2018-11-23T06:23:58.945Z,3.20
2018-11-23T06:26:28.384Z,3.10
2018-11-23T06:28:57.004Z,3.10
2018-11-23T06:31:25.688Z,3.20
2018-11-23T06:34:01.004Z,3.20
2018-11-23T06:36:29.670Z,3.20
2018-11-23T06:38:58.321Z,3.20
2018-11-23T06:41:27.061Z,3.20
2018-11-23T06:43:55.704Z,3.30
2018-11-23T06:46:24.353Z,3.20
2018-11-23T06:48:53.052Z,3.20
2018-11-23T06:51:21.689Z,3.10
2018-11-23T06:53:50.333Z,3.10
2018-11-23T06:56:19.008Z,3.10
2018-11-23T06:58:47.748Z,3.00
2018-11-23T07:01:17.317Z,2.90
2018-11-23T07:03:45.996Z,2.90
2018-11-23T07:06:14.648Z,2.90
2018-11-23T07:08:43.390Z,2.90
2018-11-23T07:11:12.033Z,2.90
2018-11-23T07:13:40.737Z,2.90
2018-11-23T07:16:09.428Z,2.90
2018-11-23T07:18:38.180Z,2.80
2018-11-23T07:21:06.816Z,2.80
2018-11-23T07:23:35.514Z,2.90
2018-11-23T07:26:04.161Z,3.00
2018-11-23T07:28:32.817Z,2.90
2018-11-23T07:31:02.482Z,2.80
2018-11-23T07:33:30.133Z,2.80
2018-11-23T07:35:58.792Z,2.80
2018-11-23T07:38:27.462Z,2.80
2018-11-23T07:41:07.458Z,2.90
2018-11-23T07:43:36.113Z,3.00
2018-11-23T07:46:04.780Z,2.90
2018-11-23T07:48:33.463Z,2.90
2018-11-23T07:51:02.408Z,2.90
2018-11-23T07:53:31.082Z,3.00
2018-11-23T07:55:59.730Z,2.90
2018-11-23T07:58:28.692Z,3.00
2018-11-23T08:00:57.377Z,2.90
2018-11-23T08:03:26.032Z,3.00
2018-11-23T08:05:54.701Z,3.00
2018-11-23T08:08:23.321Z,3.10
2018-11-23T08:10:51.335Z,3.20
2018-11-23T08:13:19.988Z,3.10
2018-11-23T08:15:48.755Z,3.20
2018-11-23T08:18:17.960Z,3.20
2018-11-23T08:20:47.536Z,3.20
2018-11-23T08:23:16.160Z,3.30
2018-11-23T08:25:44.804Z,3.40
2018-11-23T08:28:13.441Z,3.30
2018-11-23T08:30:42.092Z,3.30
2018-11-23T08:33:10.829Z,3.30
2018-11-23T08:35:39.790Z,3.30
2018-11-23T08:38:08.492Z,3.20
2018-11-23T08:40:37.128Z,3.40
2018-11-23T08:43:05.824Z,3.30
2018-11-23T08:45:34.465Z,3.20
2018-11-23T08:48:03.199Z,3.10
2018-11-23T08:50:31.927Z,3.10
2018-11-23T08:53:00.577Z,3.20
2018-11-23T08:55:29.214Z,3.20
2018-11-23T08:57:57.864Z,3.20
2018-11-23T09:00:27.550Z,3.30
2018-11-23T09:02:57.672Z,3.20
2018-11-23T09:05:26.412Z,3.20
2018-11-23T09:07:55.992Z,3.20
2018-11-23T09:10:26.053Z,3.30
2018-11-23T09:12:56.271Z,3.40
2018-11-23T09:15:24.991Z,3.50
2018-11-23T09:17:53.630Z,3.40
2018-11-23T09:20:22.263Z,3.50
2018-11-23T09:22:51.041Z,3.60
2018-11-23T09:25:20.884Z,3.60
2018-11-23T09:27:49.601Z,3.50
2018-11-23T09:30:19.945Z,3.50
2018-11-23T09:32:49.396Z,3.50
2018-11-23T09:35:18.688Z,3.60
2018-11-23T09:37:47.892Z,3.60
2018-11-23T09:40:18.061Z,3.70
2018-11-23T09:42:46.691Z,3.70
2018-11-23T09:45:17.359Z,3.70
2018-11-23T09:47:46.969Z,3.70
2018-11-23T09:50:17.913Z,3.70
2018-11-23T09:52:47.472Z,3.80
2018-11-23T09:55:16.230Z,3.80
2018-11-23T09:57:45.118Z,3.90
2018-11-23T10:00:16.656Z,3.90
2018-11-23T10:02:46.046Z,3.90
2018-11-23T10:05:15.345Z,3.80
2018-11-23T10:07:46.207Z,3.80
2018-11-23T10:10:15.769Z,3.80
2018-11-23T10:12:44.613Z,3.80
2018-11-23T10:15:14.792Z,3.90
2018-11-23T10:17:43.517Z,4.00
2018-11-23T10:20:15.810Z,4.00
2018-11-23T10:22:44.844Z,4.10
2018-11-23T10:25:14.745Z,4.20
2018-11-23T10:27:43.949Z,4.30
2018-11-23T10:30:15.200Z,4.10
2018-11-23T10:32:44.365Z,4.20
2018-11-23T10:35:13.033Z,4.30
2018-11-23T10:37:42.453Z,4.50
2018-11-23T10:40:13.515Z,4.60
2018-11-23T10:42:42.493Z,4.80
2018-11-23T10:45:14.120Z,4.90
2018-11-23T10:47:42.837Z,5.20
2018-11-23T10:50:13.708Z,5.30
2018-11-23T10:52:42.369Z,5.50
2018-11-23T10:55:13.653Z,5.40
2018-11-23T10:57:42.385Z,5.30
2018-11-23T11:00:17.769Z,5.20
2018-11-23T11:02:52.329Z,5.20
2018-11-23T11:05:26.475Z,5.30
2018-11-23T11:07:56.222Z,5.20
2018-11-23T11:10:25.085Z,5.30
2018-11-23T11:12:53.779Z,5.40
2018-11-23T11:15:22.729Z,5.40
2018-11-23T11:17:51.482Z,5.40
2018-11-23T11:20:21.125Z,5.50
2018-11-23T11:22:50.797Z,5.40
2018-11-23T11:30:16.546Z,5.40
2018-11-23T11:32:45.825Z,5.50
2018-11-23T11:35:14.574Z,5.40
2018-11-23T11:37:43.636Z,5.40
2018-11-23T11:40:13.691Z,5.40
2018-11-23T11:42:43.157Z,5.50
2018-11-23T11:45:13.321Z,5.50
2018-11-23T11:47:43.083Z,5.50
2018-11-23T11:50:12.482Z,5.60
2018-11-23T11:52:42.357Z,5.50
2018-11-23T11:55:13.135Z,5.50
2018-11-23T11:57:42.691Z,5.50
2018-11-23T12:00:16.635Z,5.50
2018-11-23T12:02:45.446Z,5.60
2018-11-23T12:05:14.419Z,5.60
2018-11-23T12:07:43.221Z,5.60
2018-11-23T12:10:14.576Z,5.80
2018-11-23T12:12:51.000Z,5.80
2018-11-23T12:15:30.152Z,5.90
2018-11-23T12:18:03.489Z,5.90
2018-11-23T12:20:41.042Z,6.00
2018-11-23T12:23:22.820Z,5.80
2018-11-23T12:28:33.688Z,5.90
2018-11-23T12:31:15.387Z,5.90
2018-11-23T12:33:55.349Z,6.00
2018-11-23T12:36:29.065Z,6.00
2018-11-23T12:39:01.516Z,6.00
2018-11-23T12:41:43.619Z,5.90
2018-11-23T12:44:20.033Z,6.00
2018-11-23T12:46:54.745Z,6.00
2018-11-23T12:49:30.940Z,6.00
2018-11-23T12:52:13.072Z,6.00
2018-11-23T12:54:59.633Z,6.00
2018-11-23T12:57:36.556Z,6.00
2018-11-23T13:00:08.570Z,6.10
2018-11-23T13:02:37.459Z,6.10
2018-11-23T13:05:06.388Z,6.10
2018-11-23T13:07:37.119Z,6.00
2018-11-23T13:10:28.791Z,6.00
2018-11-23T13:13:07.655Z,5.90
2018-11-23T13:15:44.582Z,6.00
2018-11-23T13:18:18.368Z,6.00
2018-11-23T13:20:47.126Z,5.90
2018-11-23T13:23:15.851Z,6.00
2018-11-23T13:25:44.707Z,6.00
2018-11-23T13:28:13.713Z,5.90
2018-11-23T13:30:42.662Z,6.00
2018-11-23T13:33:23.632Z,5.90
2018-11-23T13:35:55.009Z,5.90
2018-11-23T13:38:23.943Z,5.80
2018-11-23T13:40:52.766Z,5.80
2018-11-23T13:43:21.656Z,5.90
2018-11-23T13:45:50.730Z,6.00
2018-11-23T13:48:20.079Z,5.90
2018-11-23T13:50:48.605Z,6.00
2018-11-23T13:53:17.456Z,6.10
2018-11-23T13:55:46.361Z,6.00
2018-11-23T13:58:15.416Z,6.00
2018-11-23T14:03:24.869Z,6.10
2018-11-23T14:05:56.637Z,6.20
2018-11-23T14:08:28.457Z,6.10
2018-11-23T14:11:03.793Z,6.10
2018-11-23T14:13:35.996Z,6.10
2018-11-23T14:16:10.312Z,6.00
2018-11-23T14:18:42.767Z,6.00
2018-11-23T14:21:18.467Z,6.10
2018-11-23T14:23:49.998Z,6.10
2018-11-23T14:26:22.228Z,6.10
2018-11-23T14:29:05.295Z,6.10
2018-11-23T14:31:35.453Z,6.10
2018-11-23T14:34:05.435Z,6.00
2018-11-23T14:36:35.704Z,6.10
2018-11-23T14:39:10.112Z,6.20
2018-11-23T14:41:40.347Z,6.30
2018-11-23T14:44:10.552Z,6.40
2018-11-23T14:46:40.625Z,6.40
2018-11-23T14:49:10.303Z,6.30
2018-11-23T14:51:39.964Z,6.30
2018-11-23T14:54:09.923Z,6.20
2018-11-23T14:56:40.611Z,6.30
2018-11-23T14:59:10.127Z,6.30
2018-11-23T15:01:39.865Z,6.30
2018-11-23T15:04:09.628Z,6.30
2018-11-23T15:06:39.510Z,6.30
2018-11-23T15:09:10.700Z,6.30
2018-11-23T15:11:39.904Z,6.30
2018-11-23T15:14:09.213Z,6.30
2018-11-23T15:16:38.072Z,6.20
2018-11-23T15:19:08.011Z,6.10
2018-11-23T15:21:36.925Z,6.20
2018-11-23T15:24:06.797Z,6.10
2018-11-23T15:26:37.930Z,6.10
2018-11-23T15:29:06.774Z,6.10
2018-11-23T15:31:36.496Z,6.20
2018-11-23T15:34:08.017Z,6.20
2018-11-23T15:36:36.804Z,6.20
2018-11-23T15:39:09.611Z,6.20
2018-11-23T15:41:38.986Z,6.20
2018-11-23T15:44:08.481Z,6.20
2018-11-23T15:46:37.341Z,6.30
2018-11-23T15:49:06.966Z,6.30
2018-11-23T15:51:36.801Z,6.30
2018-11-23T15:54:06.753Z,6.20
2018-11-23T15:56:36.871Z,6.10
2018-11-23T15:59:06.943Z,6.10
2018-11-23T16:01:38.012Z,6.20
2018-11-23T16:04:06.906Z,6.20
2018-11-23T16:06:36.821Z,6.20
2018-11-23T16:09:09.672Z,6.20
2018-11-23T16:11:38.664Z,6.20
2018-11-23T16:14:07.656Z,6.20
2018-11-23T16:16:38.939Z,6.20
2018-11-23T16:19:07.776Z,6.10
2018-11-23T16:21:36.926Z,6.10
2018-11-23T16:24:06.541Z,6.00
2018-11-23T16:26:35.476Z,6.10
2018-11-23T16:29:04.589Z,6.10
2018-11-23T16:31:33.532Z,6.10
2018-11-23T16:34:02.546Z,6.10
2018-11-23T16:36:31.441Z,6.10
2018-11-23T16:39:00.289Z,6.00
2018-11-23T16:41:29.236Z,6.00
2018-11-23T16:43:58.048Z,5.90
2018-11-23T16:46:27.077Z,5.90
2018-11-23T16:48:55.913Z,5.90
2018-11-23T16:51:24.763Z,5.90
2018-11-23T16:53:53.998Z,5.90
2018-11-23T16:56:22.929Z,5.90
2018-11-23T16:58:51.823Z,5.90
2018-11-23T17:01:20.688Z,5.90
2018-11-23T17:03:49.501Z,5.90
2018-11-23T17:06:18.287Z,5.90
2018-11-23T17:08:47.152Z,5.90
2018-11-23T17:11:15.903Z,5.90
2018-11-23T17:13:44.972Z,5.90
2018-11-23T17:16:16.133Z,5.80
2018-11-23T17:18:45.045Z,5.70
2018-11-23T17:23:50.053Z,5.60
2018-11-23T17:26:18.657Z,5.50
2018-11-23T17:28:47.301Z,5.50
2018-11-23T17:31:16.112Z,5.50
2018-11-23T17:33:45.074Z,5.50
2018-11-23T17:36:13.692Z,5.40
2018-11-23T17:38:47.688Z,5.30
2018-11-23T17:41:10.956Z,5.20
2018-11-23T17:43:39.952Z,5.30
2018-11-23T17:46:08.614Z,5.20
2018-11-23T17:48:37.647Z,5.20
2018-11-23T17:51:07.009Z,5.20
2018-11-23T17:53:35.912Z,5.20
2018-11-23T17:56:04.564Z,5.20
2018-11-23T17:58:33.387Z,5.10
2018-11-23T18:01:02.907Z,5.10
2018-11-23T18:03:31.581Z,5.00
2018-11-23T18:06:00.305Z,4.90
2018-11-23T18:08:28.916Z,4.90
2018-11-23T18:10:57.605Z,4.90
2018-11-23T18:13:26.307Z,4.90
2018-11-23T18:15:55.112Z,5.00
2018-11-23T18:18:24.100Z,4.90
2018-11-23T18:20:52.775Z,4.90
2018-11-23T18:23:21.458Z,4.90
2018-11-23T18:25:50.298Z,4.80
2018-11-23T18:28:19.021Z,4.70
2018-11-23T18:30:47.748Z,4.70
2018-11-23T18:33:16.404Z,4.50
2018-11-23T18:35:45.241Z,4.50
2018-11-23T18:38:13.848Z,4.50
2018-11-23T18:40:42.540Z,4.50
2018-11-23T18:43:11.177Z,4.50
2018-11-23T18:45:39.816Z,4.40
2018-11-23T18:48:08.503Z,4.40
2018-11-23T18:50:37.208Z,4.50
2018-11-23T18:53:05.852Z,4.40
2018-11-23T18:55:34.550Z,4.50
2018-11-23T18:58:03.468Z,4.50
2018-11-23T19:00:32.467Z,4.40
2018-11-23T19:03:01.121Z,4.30
2018-11-23T19:05:30.133Z,4.20
2018-11-23T19:07:58.708Z,4.10
2018-11-23T19:10:27.396Z,4.00
2018-11-23T19:12:56.024Z,4.00
2018-11-23T19:15:25.798Z,4.10
2018-11-23T19:17:53.336Z,4.20
2018-11-23T19:20:22.676Z,4.10
2018-11-23T19:22:52.339Z,4.20
2018-11-23T19:25:21.083Z,4.20
2018-11-23T19:27:49.733Z,4.20
2018-11-23T19:30:28.049Z,4.20
2018-11-23T19:32:50.997Z,4.10
2018-11-23T19:35:19.804Z,4.00
2018-11-23T19:37:48.551Z,4.00
2018-11-23T19:40:17.510Z,3.90
2018-11-23T19:42:46.169Z,3.90
2018-11-23T19:45:16.089Z,3.90
2018-11-23T19:47:44.784Z,3.90
2018-11-23T19:50:15.339Z,3.90
2018-11-23T19:52:44.018Z,3.80
2018-11-23T19:55:14.550Z,3.90
2018-11-23T19:57:43.265Z,3.90
2018-11-23T20:00:29.932Z,3.80
2018-11-23T20:02:58.597Z,3.60
2018-11-23T20:05:27.282Z,3.60
2018-11-23T20:07:56.638Z,3.80
2018-11-23T20:10:25.798Z,3.70
2018-11-23T20:12:55.875Z,3.70
2018-11-23T20:15:24.593Z,3.60
2018-11-23T20:17:53.310Z,3.70
2018-11-23T20:20:21.953Z,3.60
2018-11-23T20:22:50.832Z,3.70
2018-11-23T20:25:20.272Z,3.60
2018-11-23T20:27:50.363Z,3.50
2018-11-23T20:30:19.546Z,3.50
2018-11-23T20:32:48.476Z,3.50
2018-11-23T20:35:21.192Z,3.50
2018-11-23T20:37:49.828Z,3.40
2018-11-23T20:40:19.502Z,3.40
2018-11-23T20:42:48.723Z,3.30
2018-11-23T20:45:17.381Z,3.20
2018-11-23T20:47:46.097Z,3.20
2018-11-23T20:50:15.522Z,3.10
2018-11-23T20:52:44.194Z,3.10
2018-11-23T20:55:14.887Z,2.90
2018-11-23T20:57:43.474Z,2.70
2018-11-23T21:00:15.843Z,2.50
2018-11-23T21:02:44.938Z,2.40
2018-11-23T21:05:14.423Z,2.40
2018-11-23T21:07:43.322Z,2.30
2018-11-23T21:10:20.132Z,2.20
2018-11-23T21:12:41.578Z,2.30
2018-11-23T21:15:29.568Z,2.30
2018-11-23T21:20:35.608Z,2.20
2018-11-23T21:23:04.267Z,2.00
2018-11-23T21:25:32.926Z,1.90
2018-11-23T21:28:01.597Z,2.00
2018-11-23T21:30:30.264Z,1.90
2018-11-23T21:32:58.888Z,1.90
2018-11-23T21:35:27.537Z,1.80
2018-11-23T21:37:56.184Z,1.70
2018-11-23T21:40:25.064Z,1.50
2018-11-23T21:42:53.758Z,1.50
2018-11-23T21:45:22.386Z,1.60
2018-11-23T21:47:51.037Z,1.70
2018-11-23T21:50:25.010Z,1.80
2018-11-23T21:52:49.147Z,1.80
2018-11-23T21:55:21.838Z,1.80
2018-11-23T21:57:50.707Z,1.80
2018-11-23T22:00:19.423Z,1.70
2018-11-23T22:02:48.356Z,1.70
2018-11-23T22:05:16.984Z,1.70
2018-11-23T22:07:45.726Z,1.70
2018-11-23T22:10:16.122Z,1.70
2018-11-23T22:12:44.813Z,1.60
2018-11-23T22:15:14.841Z,1.70
2018-11-23T22:17:43.645Z,1.70
2018-11-23T22:20:14.282Z,1.60
2018-11-23T22:22:43.201Z,1.60
2018-11-23T22:25:12.860Z,1.60
2018-11-23T22:27:41.848Z,1.60
2018-11-23T22:30:15.072Z,1.60
2018-11-23T22:32:43.717Z,1.70
2018-11-23T22:35:12.898Z,1.60
2018-11-23T22:37:41.568Z,1.50
2018-11-23T22:40:14.892Z,1.40
2018-11-23T22:42:44.722Z,1.40
2018-11-23T22:45:14.206Z,1.30
2018-11-23T22:47:42.812Z,1.20
2018-11-23T22:50:16.489Z,1.30
2018-11-23T22:52:45.118Z,1.30
2018-11-23T22:55:14.309Z,1.30
2018-11-23T22:57:42.925Z,1.30
2018-11-23T23:00:20.012Z,1.50
2018-11-23T23:02:49.055Z,1.40
2018-11-23T23:05:18.309Z,1.50
2018-11-23T23:07:47.087Z,1.60
2018-11-23T23:10:15.708Z,1.70
2018-11-23T23:12:44.447Z,1.70
2018-11-23T23:15:13.036Z,1.70
2018-11-23T23:17:42.023Z,1.60
2018-11-23T23:20:11.885Z,1.70
2018-11-23T23:22:40.530Z,1.60
2018-11-23T23:25:10.262Z,1.70
2018-11-23T23:27:39.115Z,1.70
2018-11-23T23:30:15.057Z,1.80
2018-11-23T23:32:44.140Z,1.80
2018-11-23T23:35:13.641Z,1.70
2018-11-23T23:37:42.341Z,1.70
2018-11-23T23:40:12.985Z,1.90
2018-11-23T23:42:41.626Z,1.90
2018-11-23T23:45:11.120Z,1.90
2018-11-23T23:47:39.782Z,1.90
2018-11-23T23:50:11.012Z,1.90
2018-11-23T23:52:39.631Z,1.80
2018-11-23T23:55:08.965Z,1.80
2018-11-23T23:57:38.911Z,1.70
